createdAt,value
2022-11-20T00:01:31.653Z,6.40
2022-11-20T00:03:59.063Z,6.40
2022-11-20T00:06:26.394Z,6.40
2022-11-20T00:08:58.441Z,6.40
2022-11-20T00:11:26.623Z,6.30
2022-11-20T00:13:54.887Z,6.30
2022-11-20T00:16:25.089Z,6.30
2022-11-20T00:18:52.148Z,6.30
2022-11-20T00:21:18.784Z,6.30
2022-11-20T00:23:45.789Z,6.30
2022-11-20T00:26:16.303Z,6.30
2022-11-20T00:28:43.540Z,6.30
2022-11-20T00:31:13.623Z,6.30
2022-11-20T00:33:43.495Z,6.30
2022-11-20T00:36:22.529Z,6.30
2022-11-20T00:38:52.444Z,6.30
2022-11-20T00:41:19.088Z,6.30
2022-11-20T00:43:45.785Z,6.30
2022-11-20T00:46:16.504Z,6.30
2022-11-20T00:48:43.663Z,6.40
2022-11-20T00:54:01.672Z,6.40
2022-11-20T00:56:28.331Z,6.40
2022-11-20T00:58:55.170Z,6.40
2022-11-20T01:01:25.167Z,6.40
2022-11-20T01:03:53.074Z,6.40
2022-11-20T01:06:19.656Z,6.40
2022-11-20T01:08:46.982Z,6.30
2022-11-20T01:11:32.978Z,6.40
2022-11-20T01:14:05.251Z,6.40
2022-11-20T01:16:34.748Z,6.30
2022-11-20T01:19:02.550Z,6.30
2022-11-20T01:21:31.309Z,6.30
2022-11-20T01:24:00.888Z,6.30
2022-11-20T01:26:29.921Z,6.40
2022-11-20T01:28:57.170Z,6.30
2022-11-20T01:31:28.710Z,6.30
2022-11-20T01:33:56.966Z,6.30
2022-11-20T01:36:25.374Z,6.30
2022-11-20T01:38:53.191Z,6.30
2022-11-20T01:41:38.603Z,6.30
2022-11-20T01:44:05.592Z,6.30
2022-11-20T01:46:37.908Z,6.30
2022-11-20T01:49:20.425Z,6.40
2022-11-20T01:51:56.011Z,6.40
2022-11-20T01:54:25.582Z,6.30
2022-11-20T01:56:53.658Z,6.30
2022-11-20T01:59:20.956Z,6.30
2022-11-20T02:01:47.887Z,6.30
2022-11-20T02:04:23.023Z,6.30
2022-11-20T02:07:01.791Z,6.30
2022-11-20T02:09:28.933Z,6.30
2022-11-20T02:11:56.024Z,6.30
2022-11-20T02:14:23.357Z,6.30
2022-11-20T02:16:50.503Z,6.30
2022-11-20T02:19:25.890Z,6.30
2022-11-20T02:21:57.344Z,6.30
2022-11-20T02:24:24.247Z,6.30
2022-11-20T02:27:02.697Z,6.30
2022-11-20T02:29:32.686Z,6.30
2022-11-20T02:32:00.534Z,6.30
2022-11-20T02:34:27.177Z,6.40
2022-11-20T02:36:54.126Z,6.40
2022-11-20T02:39:22.005Z,6.40
2022-11-20T02:41:48.796Z,6.40
2022-11-20T02:44:15.487Z,6.40
2022-11-20T02:46:45.882Z,6.40
2022-11-20T02:49:12.478Z,6.40
2022-11-20T02:51:39.074Z,6.40
2022-11-20T02:54:05.809Z,6.40
2022-11-20T02:56:33.004Z,6.40
2022-11-20T02:58:59.805Z,6.40
2022-11-20T03:01:29.994Z,6.40
2022-11-20T03:03:57.247Z,6.40
2022-11-20T03:06:24.278Z,6.40
2022-11-20T03:08:51.213Z,6.50
2022-11-20T03:11:18.311Z,6.50
2022-11-20T03:13:45.066Z,6.50
2022-11-20T03:16:25.150Z,6.50
2022-11-20T03:18:53.312Z,6.50
2022-11-20T03:21:19.949Z,6.50
2022-11-20T03:23:46.542Z,6.50
2022-11-20T03:26:23.646Z,6.50
2022-11-20T03:28:51.833Z,6.50
2022-11-20T03:31:20.038Z,6.50
2022-11-20T03:33:46.646Z,6.40
2022-11-20T03:36:16.893Z,6.50
2022-11-20T03:38:44.156Z,6.50
2022-11-20T03:41:12.360Z,6.50
2022-11-20T03:43:39.218Z,6.50
2022-11-20T03:46:06.257Z,6.50
2022-11-20T03:48:33.002Z,6.50
2022-11-20T03:51:16.736Z,6.50
2022-11-20T03:53:51.977Z,6.50
2022-11-20T03:56:19.426Z,6.50
2022-11-20T03:58:46.430Z,6.40
2022-11-20T04:01:21.477Z,6.40
2022-11-20T04:03:48.271Z,6.50
2022-11-20T04:06:16.684Z,6.60
2022-11-20T04:08:43.342Z,6.60
2022-11-20T04:11:10.939Z,6.60
2022-11-20T04:13:37.998Z,6.60
2022-11-20T04:16:05.654Z,6.60
2022-11-20T04:18:32.280Z,6.60
2022-11-20T04:21:00.225Z,6.60
2022-11-20T04:23:28.998Z,6.50
2022-11-20T04:25:55.991Z,6.50
2022-11-20T04:28:22.603Z,6.50
2022-11-20T04:30:49.241Z,6.60
2022-11-20T04:33:15.805Z,6.60
2022-11-20T04:35:42.510Z,6.60
2022-11-20T04:38:09.164Z,6.60
2022-11-20T04:40:35.855Z,6.60
2022-11-20T04:43:02.458Z,6.50
2022-11-20T04:45:29.193Z,6.50
2022-11-20T04:47:56.608Z,6.50
2022-11-20T04:50:23.270Z,6.50
2022-11-20T04:52:49.968Z,6.50
2022-11-20T04:55:16.596Z,6.50
2022-11-20T04:57:43.177Z,6.40
2022-11-20T05:00:10.065Z,6.50
2022-11-20T05:02:37.167Z,6.40
2022-11-20T05:05:04.190Z,6.40
2022-11-20T05:07:30.799Z,6.40
2022-11-20T05:09:57.531Z,6.40
2022-11-20T05:12:24.169Z,6.40
2022-11-20T05:14:51.184Z,6.30
2022-11-20T05:17:17.800Z,6.30
2022-11-20T05:19:44.449Z,6.30
2022-11-20T05:22:11.163Z,6.30
2022-11-20T05:24:37.844Z,6.30
2022-11-20T05:27:06.320Z,6.30
2022-11-20T05:29:33.734Z,6.30
2022-11-20T05:32:00.491Z,6.20
2022-11-20T05:34:27.127Z,6.20
2022-11-20T05:36:53.712Z,6.20
2022-11-20T05:39:20.688Z,6.10
2022-11-20T05:41:54.909Z,6.10
2022-11-20T05:44:21.509Z,6.10
2022-11-20T05:46:48.130Z,6.20
2022-11-20T05:49:14.691Z,6.10
2022-11-20T05:51:41.406Z,6.10
2022-11-20T05:54:07.961Z,6.10
2022-11-20T05:56:34.814Z,6.10
2022-11-20T05:59:01.390Z,6.10
2022-11-20T06:01:28.040Z,6.10
2022-11-20T06:03:55.172Z,6.10
2022-11-20T06:06:22.152Z,6.00
2022-11-20T06:08:49.325Z,6.00
2022-11-20T06:11:17.389Z,6.00
2022-11-20T06:13:44.062Z,6.00
2022-11-20T06:16:11.345Z,6.10
2022-11-20T06:18:38.408Z,6.20
2022-11-20T06:21:06.803Z,6.20
2022-11-20T06:23:34.142Z,6.20
2022-11-20T06:26:04.692Z,6.20
2022-11-20T06:28:32.222Z,6.20
2022-11-20T06:30:59.077Z,6.10
2022-11-20T06:33:26.411Z,6.20
2022-11-20T06:35:58.486Z,6.20
2022-11-20T06:38:27.141Z,6.20
2022-11-20T06:40:54.101Z,6.20
2022-11-20T06:43:20.814Z,6.20
2022-11-20T06:45:47.440Z,6.20
2022-11-20T06:48:14.150Z,6.20
2022-11-20T06:50:40.840Z,6.20
2022-11-20T06:53:07.450Z,6.20
2022-11-20T06:55:34.098Z,6.20
2022-11-20T06:58:00.723Z,6.20
2022-11-20T07:00:29.948Z,6.20
2022-11-20T07:02:56.705Z,6.20
2022-11-20T07:05:29.548Z,6.20
2022-11-20T07:07:59.507Z,6.30
2022-11-20T07:10:26.905Z,6.30
2022-11-20T07:12:55.068Z,6.30
2022-11-20T07:15:22.553Z,6.30
2022-11-20T07:17:49.323Z,6.30
2022-11-20T07:20:16.471Z,6.30
2022-11-20T07:25:24.679Z,6.30
2022-11-20T07:27:53.097Z,6.30
2022-11-20T07:30:19.943Z,6.30
2022-11-20T07:32:53.447Z,6.30
2022-11-20T07:35:20.474Z,6.30
2022-11-20T07:37:48.164Z,6.40
2022-11-20T07:40:14.864Z,6.40
2022-11-20T07:42:51.670Z,6.50
2022-11-20T07:45:18.913Z,6.50
2022-11-20T07:47:45.559Z,6.60
2022-11-20T07:50:12.742Z,6.60
2022-11-20T07:52:39.507Z,6.60
2022-11-20T07:55:06.505Z,6.70
2022-11-20T07:57:33.131Z,6.70
2022-11-20T07:59:59.951Z,6.80
2022-11-20T08:02:26.742Z,6.80
2022-11-20T08:04:53.318Z,6.90
2022-11-20T08:07:20.001Z,6.90
2022-11-20T08:09:46.639Z,6.90
2022-11-20T08:12:39.377Z,7.00
2022-11-20T08:15:12.538Z,7.00
2022-11-20T08:17:39.953Z,7.10
2022-11-20T08:20:06.827Z,7.10
2022-11-20T08:22:33.393Z,7.10
2022-11-20T08:25:00.108Z,7.10
2022-11-20T08:27:26.729Z,7.20
2022-11-20T08:29:53.687Z,7.30
2022-11-20T08:32:20.341Z,7.30
2022-11-20T08:34:47.458Z,7.40
2022-11-20T08:37:14.123Z,7.40
2022-11-20T08:39:41.047Z,7.40
2022-11-20T08:42:08.345Z,7.50
2022-11-20T08:44:35.027Z,7.60
2022-11-20T08:47:01.746Z,7.60
2022-11-20T08:49:29.165Z,7.60
2022-11-20T08:51:57.016Z,7.70
2022-11-20T08:54:23.821Z,7.80
2022-11-20T08:56:50.417Z,7.70
2022-11-20T08:59:31.340Z,7.80
2022-11-20T09:02:07.391Z,7.80
2022-11-20T09:04:34.071Z,7.90
2022-11-20T09:07:01.161Z,7.90
2022-11-20T09:12:08.414Z,7.80
2022-11-20T09:14:35.066Z,7.80
2022-11-20T09:17:01.749Z,7.80
2022-11-20T09:19:36.424Z,7.80
2022-11-20T09:22:03.363Z,7.70
2022-11-20T09:24:30.062Z,7.70
2022-11-20T09:26:56.739Z,7.70
2022-11-20T09:29:23.660Z,7.70
2022-11-20T09:31:50.440Z,7.80
2022-11-20T09:34:17.039Z,7.90
2022-11-20T09:36:43.647Z,7.90
2022-11-20T09:39:10.209Z,7.90
2022-11-20T09:41:55.380Z,7.90
2022-11-20T09:44:34.996Z,7.90
2022-11-20T09:47:09.569Z,7.90
2022-11-20T09:49:36.142Z,7.90
2022-11-20T09:52:22.365Z,8.00
2022-11-20T09:54:49.435Z,8.00
2022-11-20T09:57:18.667Z,8.10
2022-11-20T09:59:50.476Z,8.10
2022-11-20T10:02:17.257Z,8.20
2022-11-20T10:05:02.055Z,8.30
2022-11-20T10:07:37.467Z,8.50
2022-11-20T10:10:04.481Z,8.70
2022-11-20T10:12:32.195Z,9.00
2022-11-20T10:14:58.811Z,9.10
2022-11-20T10:17:34.458Z,9.20
2022-11-20T10:20:04.923Z,9.30
2022-11-20T10:22:50.819Z,9.30
2022-11-20T10:25:25.004Z,9.40
2022-11-20T10:28:00.632Z,9.50
2022-11-20T10:30:28.149Z,9.50
2022-11-20T10:33:13.484Z,9.60
2022-11-20T10:35:50.513Z,9.60
2022-11-20T10:38:26.480Z,9.60
2022-11-20T10:41:15.628Z,9.70
2022-11-20T10:43:42.829Z,9.80
2022-11-20T10:52:08.569Z,9.70
2022-11-20T10:54:50.546Z,9.80
2022-11-20T10:57:26.408Z,9.90
2022-11-20T11:00:10.457Z,10.00
2022-11-20T11:02:50.898Z,10.10
2022-11-20T11:05:17.527Z,10.20
2022-11-20T11:07:46.205Z,10.20
2022-11-20T11:10:19.504Z,10.30
2022-11-20T11:12:55.137Z,10.40
2022-11-20T11:15:38.025Z,10.30
2022-11-20T11:18:04.751Z,10.40
2022-11-20T11:20:32.734Z,10.30
2022-11-20T11:23:00.236Z,10.30
2022-11-20T11:25:31.419Z,10.20
2022-11-20T11:27:59.938Z,10.10
2022-11-20T11:30:27.247Z,10.10
2022-11-20T11:33:26.399Z,10.00
2022-11-20T11:35:54.813Z,10.00
2022-11-20T11:38:23.915Z,10.20
2022-11-20T11:40:50.595Z,10.30
2022-11-20T11:43:41.244Z,10.20
2022-11-20T11:46:34.152Z,10.10
2022-11-20T11:49:10.229Z,10.00
2022-11-20T11:51:42.602Z,10.20
2022-11-20T11:54:18.173Z,10.00
2022-11-20T11:56:44.922Z,10.00
2022-11-20T11:59:14.051Z,10.10
2022-11-20T12:01:52.698Z,10.10
2022-11-20T12:04:25.980Z,10.10
2022-11-20T12:06:54.640Z,10.30
2022-11-20T12:09:25.638Z,10.40
2022-11-20T12:11:59.917Z,10.40
2022-11-20T12:14:34.719Z,10.70
2022-11-20T12:17:02.228Z,10.60
2022-11-20T12:19:30.701Z,10.60
2022-11-20T12:22:05.016Z,10.50
2022-11-20T12:24:50.822Z,10.40
2022-11-20T12:27:36.393Z,10.50
2022-11-20T12:30:16.466Z,10.60
2022-11-20T12:32:46.105Z,10.70
2022-11-20T12:35:15.739Z,10.60
2022-11-20T12:37:42.339Z,10.50
2022-11-20T12:40:14.928Z,10.50
2022-11-20T12:43:17.632Z,10.60
2022-11-20T12:46:04.943Z,10.60
2022-11-20T12:48:41.153Z,10.40
2022-11-20T12:51:15.584Z,10.30
2022-11-20T12:53:46.240Z,10.50
2022-11-20T12:56:29.860Z,10.30
2022-11-20T12:59:25.093Z,10.30
2022-11-20T13:01:54.843Z,10.60
2022-11-20T13:04:36.855Z,10.30
2022-11-20T13:07:04.664Z,10.10
2022-11-20T13:09:31.780Z,9.90
2022-11-20T13:12:11.905Z,10.00
2022-11-20T13:14:48.632Z,9.90
2022-11-20T13:17:18.261Z,9.90
2022-11-20T13:19:52.977Z,9.80
2022-11-20T13:22:28.858Z,9.80
2022-11-20T13:24:55.540Z,9.80
2022-11-20T13:27:27.852Z,9.70
2022-11-20T13:30:02.467Z,9.70
2022-11-20T13:32:34.701Z,9.70
2022-11-20T13:35:05.348Z,9.60
2022-11-20T13:37:33.138Z,9.60
2022-11-20T13:40:29.960Z,9.60
2022-11-20T13:43:09.293Z,9.60
2022-11-20T13:45:36.281Z,9.50
2022-11-20T13:48:08.738Z,9.50
2022-11-20T13:50:41.201Z,9.50
2022-11-20T13:53:23.634Z,9.50
2022-11-20T13:56:09.084Z,9.50
2022-11-20T13:58:48.687Z,9.60
2022-11-20T14:01:17.544Z,9.60
2022-11-20T14:04:05.008Z,9.60
2022-11-20T14:06:32.579Z,9.60
2022-11-20T14:08:59.798Z,9.50
2022-11-20T14:11:27.876Z,9.50
2022-11-20T14:14:02.844Z,9.40
2022-11-20T14:16:30.854Z,9.40
2022-11-20T14:18:58.454Z,9.50
2022-11-20T14:21:29.783Z,9.50
2022-11-20T14:24:11.507Z,9.40
2022-11-20T14:26:39.153Z,9.40
2022-11-20T14:29:05.780Z,9.40
2022-11-20T14:31:33.042Z,9.40
2022-11-20T14:34:01.456Z,9.30
2022-11-20T14:36:30.276Z,9.30
2022-11-20T14:38:56.855Z,9.30
2022-11-20T14:41:24.595Z,9.30
2022-11-20T14:43:54.408Z,9.30
2022-11-20T14:46:21.842Z,9.40
2022-11-20T14:48:49.524Z,9.40
2022-11-20T14:51:37.684Z,9.40
2022-11-20T14:54:10.819Z,9.40
2022-11-20T14:56:37.927Z,9.20
2022-11-20T14:59:04.696Z,9.30
2022-11-20T15:01:32.246Z,9.30
2022-11-20T15:04:10.400Z,9.30
2022-11-20T15:06:37.408Z,9.20
2022-11-20T15:09:05.240Z,9.10
2022-11-20T15:11:35.489Z,9.10
2022-11-20T15:14:03.996Z,9.10
2022-11-20T15:16:31.289Z,9.00
2022-11-20T15:18:58.061Z,9.10
2022-11-20T15:21:24.893Z,9.10
2022-11-20T15:23:51.592Z,9.20
2022-11-20T15:29:09.192Z,8.80
2022-11-20T15:31:35.877Z,8.60
2022-11-20T15:34:03.354Z,8.70
2022-11-20T15:36:30.055Z,8.50
2022-11-20T15:38:56.639Z,8.30
2022-11-20T15:41:23.569Z,8.20
2022-11-20T15:43:50.912Z,8.00
2022-11-20T15:46:20.768Z,8.10
2022-11-20T15:48:51.998Z,8.00
2022-11-20T15:51:31.938Z,8.00
2022-11-20T15:53:58.781Z,7.80
2022-11-20T15:56:25.484Z,7.80
2022-11-20T15:58:52.138Z,7.90
2022-11-20T16:01:20.469Z,7.70
2022-11-20T16:03:47.161Z,7.70
2022-11-20T16:06:13.844Z,7.70
2022-11-20T16:08:44.100Z,7.60
2022-11-20T16:11:14.727Z,7.50
2022-11-20T16:14:00.582Z,7.50
2022-11-20T16:16:31.048Z,7.50
2022-11-20T16:18:58.093Z,7.50
2022-11-20T16:21:31.886Z,7.50
2022-11-20T16:24:02.873Z,7.40
2022-11-20T16:26:29.892Z,7.50
2022-11-20T16:28:56.881Z,7.50
2022-11-20T16:31:26.688Z,7.40
2022-11-20T16:34:23.142Z,7.40
2022-11-20T16:36:49.827Z,7.40
2022-11-20T16:39:23.548Z,7.40
2022-11-20T16:44:46.653Z,7.30
2022-11-20T16:47:13.415Z,7.30
2022-11-20T16:49:40.022Z,7.30
2022-11-20T16:54:47.284Z,7.30
2022-11-20T16:57:15.637Z,7.30
2022-11-20T16:59:42.645Z,7.30
2022-11-20T17:02:10.488Z,7.30
2022-11-20T17:04:38.517Z,7.30
2022-11-20T17:07:08.103Z,7.30
2022-11-20T17:09:34.949Z,7.20
2022-11-20T17:12:01.633Z,7.20
2022-11-20T17:14:28.274Z,7.20
2022-11-20T17:16:54.917Z,7.20
2022-11-20T17:19:21.519Z,7.20
2022-11-20T17:21:48.234Z,7.10
2022-11-20T17:24:16.199Z,7.10
2022-11-20T17:26:43.485Z,7.00
2022-11-20T17:29:14.677Z,7.00
2022-11-20T17:31:41.956Z,7.00
2022-11-20T17:34:10.934Z,7.00
2022-11-20T17:36:44.901Z,6.90
2022-11-20T17:39:12.634Z,6.90
2022-11-20T17:41:39.292Z,6.80
2022-11-20T17:44:07.055Z,6.80
2022-11-20T17:46:34.147Z,6.80
2022-11-20T17:49:09.965Z,6.70
2022-11-20T17:51:36.630Z,6.70
2022-11-20T17:54:04.624Z,6.60
2022-11-20T17:56:50.546Z,6.60
2022-11-20T17:59:18.516Z,6.60
2022-11-20T18:01:45.520Z,6.50
2022-11-20T18:04:12.531Z,6.50
2022-11-20T18:06:39.155Z,6.40
2022-11-20T18:09:06.805Z,6.40
2022-11-20T18:11:34.792Z,6.30
2022-11-20T18:14:21.482Z,6.20
2022-11-20T18:16:56.534Z,6.20
2022-11-20T18:19:32.387Z,6.20
2022-11-20T18:22:01.877Z,6.20
2022-11-20T18:24:28.934Z,6.10
2022-11-20T18:27:02.413Z,6.00
2022-11-20T18:29:31.044Z,5.90
2022-11-20T18:31:58.936Z,5.90
2022-11-20T18:34:36.234Z,5.80
2022-11-20T18:51:47.671Z,5.50
2022-11-20T18:56:55.481Z,5.40
2022-11-20T18:59:22.168Z,5.40
2022-11-20T19:01:49.362Z,5.30
2022-11-20T19:04:16.747Z,5.30
2022-11-20T19:06:44.395Z,5.20
2022-11-20T19:09:11.954Z,5.20
2022-11-20T19:11:39.461Z,5.20
2022-11-20T19:14:06.308Z,5.10
2022-11-20T19:16:33.305Z,5.10
2022-11-20T19:21:42.249Z,4.90
2022-11-20T19:24:08.969Z,4.70
2022-11-20T19:26:36.508Z,4.60
2022-11-20T19:29:04.328Z,4.60
2022-11-20T19:31:31.427Z,4.60
2022-11-20T19:33:59.269Z,4.60
2022-11-20T19:36:33.346Z,4.60
2022-11-20T19:39:00.534Z,4.50
2022-11-20T19:41:31.604Z,4.40
2022-11-20T19:44:05.976Z,4.30
2022-11-20T19:46:33.172Z,4.20
2022-11-20T19:48:59.870Z,4.20
2022-11-20T19:51:28.260Z,4.10
2022-11-20T19:53:56.194Z,4.10
2022-11-20T19:56:23.434Z,4.10
2022-11-20T19:58:50.233Z,4.10
2022-11-20T20:01:18.107Z,4.10
2022-11-20T20:03:45.333Z,4.10
2022-11-20T20:06:14.365Z,4.00
2022-11-20T20:08:41.296Z,3.90
2022-11-20T20:11:18.215Z,3.90
2022-11-20T20:13:45.280Z,3.90
2022-11-20T20:16:12.812Z,3.90
2022-11-20T20:18:39.523Z,3.90
2022-11-20T20:21:14.991Z,3.90
2022-11-20T20:23:42.261Z,3.80
2022-11-20T20:26:09.292Z,3.70
2022-11-20T20:28:36.621Z,3.70
2022-11-20T20:31:10.388Z,3.60
2022-11-20T20:33:37.982Z,3.60
2022-11-20T20:36:07.836Z,3.60
2022-11-20T20:38:35.040Z,3.40
2022-11-20T20:41:02.106Z,3.40
2022-11-20T20:43:29.095Z,3.30
2022-11-20T20:45:55.784Z,3.30
2022-11-20T20:48:24.051Z,3.20
2022-11-20T20:50:54.692Z,3.20
2022-11-20T20:56:04.667Z,3.00
2022-11-20T20:58:33.095Z,2.90
2022-11-20T21:01:04.414Z,2.90
2022-11-20T21:03:33.177Z,2.80
2022-11-20T21:06:02.202Z,2.80
2022-11-20T21:08:29.322Z,2.80
2022-11-20T21:11:00.130Z,2.80
2022-11-20T21:13:26.782Z,2.80
2022-11-20T21:15:57.130Z,2.80
2022-11-20T21:18:24.747Z,2.80
2022-11-20T21:21:10.327Z,2.80
2022-11-20T21:23:37.064Z,2.80
2022-11-20T21:26:05.137Z,2.70
2022-11-20T21:28:32.913Z,2.80
2022-11-20T21:31:06.784Z,2.70
2022-11-20T21:33:46.877Z,2.70
2022-11-20T21:36:15.197Z,2.70
2022-11-20T21:38:43.234Z,2.60
2022-11-20T21:41:11.887Z,2.50
2022-11-20T21:43:39.707Z,2.50
2022-11-20T21:46:15.537Z,2.50
2022-11-20T22:03:01.072Z,2.20
2022-11-20T22:05:28.824Z,2.20
2022-11-20T22:07:55.475Z,2.10
2022-11-20T22:10:22.314Z,2.10
2022-11-20T22:12:48.944Z,2.10
2022-11-20T22:15:23.833Z,2.10
2022-11-20T22:18:14.384Z,2.20
2022-11-20T22:20:41.679Z,2.20
2022-11-20T22:23:08.418Z,2.40
2022-11-20T22:25:44.310Z,2.40
2022-11-20T22:28:10.992Z,2.50
2022-11-20T22:30:37.749Z,2.60
2022-11-20T22:33:13.467Z,2.70
2022-11-20T22:35:40.608Z,2.70
2022-11-20T22:38:07.781Z,2.80
2022-11-20T22:40:46.687Z,2.90
2022-11-20T22:43:14.464Z,2.90
2022-11-20T22:45:41.165Z,2.80
2022-11-20T22:48:08.150Z,2.80
2022-11-20T22:50:35.718Z,2.80
2022-11-20T22:53:02.477Z,2.80
2022-11-20T22:55:29.196Z,2.80
2022-11-20T22:57:58.660Z,2.90
2022-11-20T23:00:25.383Z,2.90
2022-11-20T23:02:52.168Z,2.90
2022-11-20T23:05:19.044Z,2.80
2022-11-20T23:07:45.826Z,2.80
2022-11-20T23:10:13.086Z,2.80
2022-11-20T23:12:39.694Z,2.90
2022-11-20T23:15:06.849Z,3.00
2022-11-20T23:17:33.657Z,3.10
2022-11-20T23:20:07.745Z,3.20
2022-11-20T23:22:34.477Z,3.20
2022-11-20T23:25:02.353Z,3.30
2022-11-20T23:27:29.087Z,3.30
2022-11-20T23:29:58.995Z,3.30
2022-11-20T23:32:25.756Z,3.20
2022-11-20T23:35:06.540Z,3.20
2022-11-20T23:37:40.649Z,3.30
2022-11-20T23:40:07.712Z,3.50
2022-11-20T23:42:34.389Z,3.50
2022-11-20T23:45:01.116Z,3.60
2022-11-20T23:47:27.748Z,3.60
2022-11-20T23:49:56.662Z,3.70
2022-11-20T23:52:24.936Z,3.90
2022-11-20T23:54:51.617Z,3.90
2022-11-20T23:57:18.601Z,3.90
2022-11-20T23:59:45.180Z,4.00
